| time (UTC) | temp C | wind direction | speed KPH | gust KPH | rain 1hr cm | rain 24hr cm | rain mn cm | humidity % | barometer mb |
| 20260507191539 | 17 | 137 | 11.3 | 19.3 | 0.00 | 0.81 | 0.38 | 38 | 1008.3 |
| 20260507190050 | 17 | 167 | 8.0 | 12.9 | 0.00 | 0.81 | 0.38 | 40 | 1008.5 |
| 20260507184542 | 17 | 142 | 4.8 | 12.9 | 0.00 | 0.81 | 0.38 | 42 | 1008.7 |
| 20260507183042 | 16 | 113 | 4.8 | 11.3 | 0.00 | 0.81 | 0.38 | 50 | 1008.8 |
| 20260507181540 | 16 | 153 | 3.2 | 11.3 | 0.00 | 0.81 | 0.38 | 46 | 1008.7 |
| 20260507180039 | 16 | 231 | 4.8 | 16.1 | 0.00 | 0.81 | 0.38 | 46 | 1008.9 |
| 20260507174554 | 16 | 145 | 4.8 | 17.7 | 0.00 | 0.81 | 0.38 | 49 | 1009.1 |
| 20260507173039 | 16 | 189 | 6.4 | 17.7 | 0.00 | 0.81 | 0.38 | 48 | 1009.5 |
| 20260507171540 | 15 | 143 | 1.6 | 14.5 | 0.00 | 0.81 | 0.38 | 49 | 1009.7 |
| 20260507170045 | 15 | 132 | 4.8 | 16.1 | 0.00 | 0.81 | 0.38 | 51 | 1010.0 |
| 20260507164539 | 15 | 167 | 9.7 | 19.3 | 0.00 | 0.89 | 0.38 | 48 | 1010.3 |
| 20260507163043 | 14 | 153 | 9.7 | 20.9 | 0.00 | 0.89 | 0.38 | 49 | 1010.5 |
| 20260507161550 | 14 | 196 | 6.4 | 20.9 | 0.00 | 0.89 | 0.38 | 51 | 1010.7 |
| 20260507160046 | 14 | 167 | 9.7 | 16.1 | 0.00 | 0.89 | 0.38 | 52 | 1010.7 |
| 20260507154543 | 13 | 181 | 8.0 | 17.7 | 0.00 | 1.09 | 0.38 | 49 | 1010.9 |
| 20260507153101 | 13 | 145 | 9.7 | 19.3 | 0.00 | 1.09 | 0.38 | 53 | 1010.9 |
| 20260507151546 | 13 | 140 | 8.0 | 16.1 | 0.00 | 1.09 | 0.38 | 56 | 1011.2 |
| 20260507150046 | 13 | 141 | 4.8 | 11.3 | 0.00 | 1.09 | 0.38 | 62 | 1011.4 |
| 20260507144551 | 12 | 153 | 8.0 | 14.5 | 0.00 | 1.22 | 0.38 | 60 | 1011.5 |
| 20260507143041 | 12 | 158 | 8.0 | 19.3 | 0.00 | 1.22 | 0.38 | 68 | 1011.6 |
| 20260507141538 | 12 | 155 | 6.4 | 17.7 | 0.00 | 1.22 | 0.38 | 68 | 1011.7 |
| 20260507140037 | 11 | 206 | 6.4 | 16.1 | 0.00 | 1.22 | 0.38 | 68 | 1011.7 |
| 20260507134541 | 11 | 150 | 8.0 | 19.3 | 0.00 | 1.22 | 0.38 | 69 | 1011.8 |
| 20260507133041 | 11 | 139 | 6.4 | 14.5 | 0.00 | 1.22 | 0.38 | 73 | 1011.9 |
| 20260507131540 | 10 | 158 | 4.8 | 12.9 | 0.00 | 1.22 | 0.38 | 76 | 1012.0 |
| 20260507130055 | 10 | 134 | 4.8 | 12.9 | 0.00 | 1.22 | 0.38 | 80 | 1011.8 |
| 20260507124554 | 10 | 150 | 4.8 | 12.9 | 0.00 | 1.22 | 0.38 | 82 | 1011.9 |
| 20260507123043 | 10 | 137 | 4.8 | 9.7 | 0.00 | 1.22 | 0.38 | 87 | 1011.8 |
| 20260507121547 | 10 | 129 | 3.2 | 8.0 | 0.00 | 1.22 | 0.38 | 91 | 1011.8 |
| 20260507120040 | 10 | 137 | 3.2 | 9.7 | 0.00 | 1.22 | 0.38 | 93 | 1011.6 |
| 20260507114550 | 10 | 149 | 3.2 | 8.0 | 0.00 | 1.22 | 0.38 | 93 | 1011.5 |
| 20260507113043 | 10 | 0 | 0.0 | 3.2 | 0.00 | 1.22 | 0.38 | 94 | 1011.5 |
| 20260507111542 | 10 | 128 | 0.0 | 3.2 | 0.00 | 1.22 | 0.38 | 94 | 1011.5 |
| 20260507110039 | 9 | 128 | 0.0 | 3.2 | 0.00 | 1.22 | 0.38 | 94 | 1011.4 |
| 20260507104540 | 9 | 128 | 0.0 | 1.6 | 0.00 | 1.22 | 0.38 | 94 | 1011.1 |
| 20260507103034 | 9 | 128 | 0.0 | 1.6 | 0.00 | 1.22 | 0.38 | 93 | 1011.0 |
| 20260507101553 | 9 | 0 | 0.0 | 3.2 | 0.00 | 1.22 | 0.38 | 93 | 1010.7 |
| 20260507100054 | 9 | 0 | 0.0 | 1.6 | 0.00 | 1.22 | 0.38 | 93 | 1010.6 |
| 20260507094538 | 9 | 0 | 0.0 | 1.6 | 0.00 | 1.22 | 0.38 | 93 | 1010.4 |
| 20260507093040 | 9 | 0 | 0.0 | 3.2 | 0.00 | 1.22 | 0.38 | 93 | 1010.4 |
| 20260507091537 | 10 | 0 | 0.0 | 3.2 | 0.00 | 1.22 | 0.38 | 92 | 1010.2 |
| 20260507090034 | 9 | 0 | 0.0 | 3.2 | 0.00 | 1.22 | 0.38 | 92 | 1010.0 |
| 20260507084546 | 9 | 0 | 0.0 | 4.8 | 0.03 | 1.22 | 0.38 | 92 | 1009.9 |
| 20260507083051 | 9 | 156 | 3.2 | 4.8 | 0.03 | 1.22 | 0.38 | 92 | 1009.6 |
| 20260507081540 | 9 | 0 | 0.0 | 3.2 | 0.05 | 1.22 | 0.38 | 91 | 1009.8 |
| 20260507080049 | 9 | 156 | 1.6 | 6.4 | 0.08 | 1.22 | 0.38 | 91 | 1009.9 |
| 20260507074542 | 9 | 0 | 0.0 | 8.0 | 0.08 | 1.19 | 0.36 | 90 | 1010.2 |
| 20260507073053 | 10 | 162 | 3.2 | 9.7 | 0.15 | 1.19 | 0.36 | 90 | 1010.1 |
| 20260507071542 | 10 | 176 | 4.8 | 11.3 | 0.18 | 1.17 | 0.33 | 91 | 1010.6 |
| 20260507070041 | 10 | 158 | 6.4 | 12.9 | 0.18 | 1.14 | 0.30 | 91 | 1010.7 |
| 20260507064542 | 10 | 146 | 4.8 | 16.1 | 0.20 | 1.12 | 0.28 | 91 | 1011.0 |
| 20260507063046 | 10 | 146 | 8.0 | 14.5 | 0.15 | 1.04 | 0.20 | 91 | 1010.4 |
| 20260507061537 | 10 | 145 | 3.2 | 9.7 | 0.10 | 0.99 | 0.15 | 91 | 1010.5 |
| 20260507060042 | 10 | 155 | 6.4 | 12.9 | 0.08 | 0.97 | 0.13 | 90 | 1010.2 |
| 20260507054543 | 11 | 134 | 9.7 | 20.9 | 0.05 | 0.91 | 0.08 | 89 | 1010.6 |
| 20260507053037 | 11 | 141 | 11.3 | 24.1 | 0.05 | 0.89 | 0.05 | 89 | 1010.3 |
| 20260507051539 | 12 | 171 | 9.7 | 17.7 | 0.05 | 0.89 | 0.05 | 90 | 1010.3 |
| 20260507050040 | 12 | 157 | 6.4 | 12.9 | 0.05 | 0.89 | 0.05 | 91 | 1009.9 |
| 20260507044540 | 13 | 141 | 4.8 | 11.3 | 0.05 | 0.86 | 0.03 | 91 | 1009.6 |
| 20260507043043 | 13 | 151 | 6.4 | 11.3 | 0.03 | 0.84 | 0.00 | 90 | 1009.6 |
| 20260507041546 | 13 | 166 | 4.8 | 11.3 | 0.03 | 0.84 | 0.00 | 90 | 1009.2 |
| 20260507040040 | 13 | 167 | 6.4 | 19.3 | 0.03 | 0.84 | 0.00 | 90 | 1008.9 |
| 20260507034539 | 15 | 134 | 3.2 | 6.4 | 0.00 | 0.81 | 0.81 | 92 | 1009.4 |
| 20260507033044 | 15 | 0 | 0.0 | 3.2 | 0.00 | 0.81 | 0.81 | 91 | 1009.2 |
| 20260507031538 | 15 | 0 | 0.0 | 6.4 | 0.00 | 0.81 | 0.81 | 91 | 1009.2 |
| 20260507030041 | 15 | 134 | 1.6 | 6.4 | 0.00 | 0.81 | 0.81 | 90 | 1009.0 |
| 20260507024537 | 15 | 115 | 1.6 | 6.4 | 0.30 | 0.81 | 0.81 | 89 | 1009.0 |
| 20260507023044 | 16 | 127 | 3.2 | 12.9 | 0.41 | 0.81 | 0.81 | 89 | 1009.1 |
| 20260507021538 | 16 | 134 | 4.8 | 16.1 | 0.41 | 0.81 | 0.81 | 90 | 1008.9 |
| 20260507020057 | 17 | 134 | 1.6 | 12.9 | 0.41 | 0.81 | 0.81 | 89 | 1008.9 |
| 20260507014544 | 17 | 124 | 6.4 | 12.9 | 0.08 | 0.48 | 0.48 | 86 | 1009.4 |
| 20260507013038 | 18 | 108 | 1.6 | 6.4 | 0.00 | 0.41 | 0.41 | 84 | 1008.6 |
| 20260507011542 | 18 | 112 | 1.6 | 6.4 | 0.00 | 0.41 | 0.41 | 84 | 1008.7 |
| 20260507010043 | 18 | 107 | 1.6 | 8.0 | 0.00 | 0.41 | 0.41 | 84 | 1008.4 |
| 20260507004543 | 18 | 105 | 1.6 | 8.0 | 0.00 | 0.41 | 0.41 | 84 | 1008.5 |
| 20260507003039 | 18 | 112 | 1.6 | 9.7 | 0.00 | 0.41 | 0.41 | 84 | 1008.2 |
| 20260507001546 | 18 | 113 | 0.0 | 4.8 | 0.00 | 0.41 | 0.41 | 83 | 1007.9 |
| 20260507000044 | 18 | 0 | 1.6 | 6.4 | 0.00 | 0.41 | 0.41 | 82 | 1007.7 |
| 20260506234550 | 18 | 113 | 3.2 | 8.0 | 0.00 | 0.41 | 0.41 | 82 | 1007.7 |
| 20260506233038 | 18 | 129 | 1.6 | 12.9 | 0.00 | 0.41 | 0.41 | 81 | 1007.8 |
| 20260506231546 | 18 | 105 | 0.0 | 6.4 | 0.00 | 0.41 | 0.41 | 80 | 1007.9 |
| 20260506230052 | 19 | 120 | 1.6 | 11.3 | 0.00 | 0.41 | 0.41 | 80 | 1007.7 |
| 20260506224548 | 19 | 109 | 1.6 | 8.0 | 0.00 | 0.41 | 0.41 | 80 | 1007.9 |
| 20260506223051 | 19 | 109 | 3.2 | 11.3 | 0.00 | 0.41 | 0.41 | 80 | 1007.6 |
| 20260506221540 | 19 | 98 | 4.8 | 16.1 | 0.00 | 0.41 | 0.41 | 79 | 1007.6 |
| 20260506220039 | 20 | 134 | 3.2 | 12.9 | 0.00 | 0.41 | 0.41 | 79 | 1007.5 |
| 20260506214544 | 20 | 89 | 3.2 | 8.0 | 0.00 | 0.41 | 0.41 | 78 | 1007.5 |
| 20260506213101 | 19 | 76 | 3.2 | 12.9 | 0.00 | 0.41 | 0.41 | 81 | 1007.2 |
| 20260506211603 | 18 | 114 | 3.2 | 14.5 | 0.00 | 0.41 | 0.41 | 81 | 1007.1 |
| 20260506210040 | 18 | 118 | 6.4 | 19.3 | 0.00 | 0.41 | 0.41 | 81 | 1007.2 |
| 20260506204554 | 18 | 117 | 3.2 | 12.9 | 0.00 | 0.41 | 0.41 | 83 | 1007.3 |
| 20260506203047 | 18 | 113 | 3.2 | 12.9 | 0.00 | 0.41 | 0.41 | 84 | 1007.1 |
| 20260506201555 | 17 | 125 | 0.0 | 11.3 | 0.00 | 0.41 | 0.41 | 85 | 1007.1 |
| 20260506200038 | 17 | 86 | 4.8 | 12.9 | 0.00 | 0.41 | 0.41 | 85 | 1007.2 |
| 20260506194557 | 17 | 0 | 4.8 | 14.5 | 0.00 | 0.41 | 0.41 | 86 | 1007.4 |
| 20260506193044 | 17 | 86 | 3.2 | 12.9 | 0.00 | 0.41 | 0.41 | 86 | 1007.7 |